x

Ilm3 - 27 Miles Se Of Wrightsville Beach, Nc (41037) Weather Station

5:08 - Fri 23rd Jun 2017 All times are EDT. -4 hours from GMT.

  • Wind
    20mph, 27mph gusts
  • Sea Temp 80°f
  • Aire Temp 80°f
  • Sea Pressure 1014.4mb
  • Ilm3 - 27 Miles Se Of Wrightsville Beach, Nc
  • Ilm3 - 27 Miles Se Of Wrightsville Beach, Nc

More Historic Weather Station data

Upgrade to MSW Pro to gain access to the past 30 days of data for over 8000 Wavebouys and Weather Stations around the globe.

Join Pro

Comparision Forecast

View Surf forecast
   
vie 06/23 5:08 20 27 mph 1014.4mb 80f 80f
4:08 20 25 mph 1015.6mb 80f 80f
3:08 18 25 mph 1016.1mb 80f 80f
2:08 16 22 mph 1016.4mb 80f 80f
1:08 16 22 mph 1016.3mb 80f 80f
12:08 16 22 mph 1016.9mb 80f 79f
11:08 16 22 mph 1017.1mb 80f 79f
10:08 16 20 mph 1017.3mb 80f 79f
9:08 13 18 mph 1017.5mb 80f 79f
8:08 13 18 mph 1017mb 80f 79f
7:08 11 16 mph 1016.6mb 80f 79f
6:08 11 18 mph 1016.4mb 80f 78f
5:08 13 18 mph 1016.2mb 80f 79f
4:08 13 20 mph 1016.3mb 80f 79f
3:08 13 18 mph 1016.5mb 80f 79f
2:08 13 20 mph 1017.2mb 80f 79f
1:08 11 18 mph 1017.5mb 80f 79f
12:08 11 13 mph 1018.4mb 80f 79f
jue 06/22 11:08 11 16 mph 1018.3mb 80f 79f
10:08 11 16 mph 1018.7mb 80f 79f
9:08 9 11 mph 1018.1mb 80f 79f
8:08 9 11 mph 1017.8mb 80f 79f
7:08 9 11 mph 1018.2mb 80f 79f
6:08 7 9 mph 1018.1mb 80f 79f
5:08 7 11 mph 1018mb 80f 79f
4:08 9 13 mph 1018.5mb 80f 80f
3:08 7 11 mph 1018.6mb 80f 79f
2:08 9 11 mph 1019.4mb 80f 79f
1:08 9 11 mph 1019.3mb 80f 79f
12:08 7 11 mph 1019.5mb 80f 79f
11:08 7 9 mph 1019.5mb 80f 78f
10:08 7 9 mph 1019.1mb 80f 78f
8:08 7 9 mph 1019.1mb 79f 78f
7:08 7 9 mph 1018.7mb 79f 78f
6:08 9 11 mph 1018.3mb 79f 78f
5:08 9 11 mph 1017.8mb 79f 78f
4:08 9 13 mph 1018.4mb 79f 78f
3:08 9 13 mph 1018.5mb 79f 78f
2:08 11 16 mph 1018mb 79f 78f
1:08 11 13 mph 1018.3mb 79f 78f
12:08 11 13 mph 1018.6mb 79f 78f
mié 06/21 11:08 9 13 mph 1019.3mb 79f 78f
10:08 9 16 mph 1019.4mb 80f 78f
9:08 11 16 mph 1019mb 80f 78f
8:08 11 18 mph 1018.8mb 80f 77f
7:08 11 18 mph 1018.7mb 80f 77f
6:08 9 13 mph 1018.8mb 80f 77f
5:08 7 11 mph 1018.8mb 80f 76f
4:08 9 13 mph 1018.6mb 80f 76f
3:08 4 9 mph 1019mb 80f 76f
2:08 2 9 mph 1019.5mb 80f 76f
1:08 7 11 mph 1020.8mb 80f 76f
12:08 11 20 mph 1020.8mb 80f 75f
11:08 13 20 mph 1020.1mb 80f 75f
10:08 13 20 mph 1019.7mb 80f 75f
9:08 16 25 mph 1019.5mb 80f 75f
8:08 16 22 mph 1019.2mb 80f 74f
7:08 11 16 mph 1018.5mb 80f 77f
6:08 11 18 mph 1018.2mb 80f 78f
5:08 18 25 mph 1017.5mb 80f 76f
4:08 13 18 mph 1017.6mb 80f 78f
3:08 13 20 mph 1017.8mb 80f 78f
2:08 13 18 mph 1018.4mb 80f 78f
1:08 13 20 mph 1018.6mb 80f 78f
12:08 13 18 mph 1018.9mb 80f 78f
mar 06/20 11:08 13 18 mph 1019.1mb 80f 77f
10:08 9 11 mph 1019.3mb 80f 77f
9:08 9 13 mph 1019.2mb 80f 77f
8:08 4 9 mph 1019.1mb 80f 77f
6:08 22 29 mph 1017.5mb 81f 76f
5:08 11 16 mph 1018.2mb 81f 79f
4:08 9 16 mph 1017.9mb 81f 79f
3:08 13 18 mph 1017.7mb 80f 79f
2:08 11 16 mph 1018.3mb 80f 77f
1:08 16 20 mph 1018.4mb 80f 80f
12:08 13 18 mph 1018.9mb 80f 80f
11:08 13 20 mph 1018.9mb 80f 78f
10:08 9 16 mph 1018.9mb 80f 78f
9:08 16 22 mph 1018.2mb 80f 79f
8:08 16 22 mph 1017.8mb 80f 79f
7:08 16 20 mph 1017.8mb 80f 79f
6:08 16 22 mph 1017.6mb 80f 78f
5:08 13 20 mph 1017.2mb 80f 79f
4:08 16 22 mph 1016.9mb 80f 79f
3:08 18 25 mph 1017.1mb 80f 79f
2:08 18 25 mph 1017.1mb 80f 79f
1:08 18 25 mph 1017.5mb 80f 79f
12:08 16 22 mph 1017.7mb 80f 79f
lun 06/19 11:08 16 22 mph 1017.9mb 80f 79f